createdAt,value
2022-09-28T00:01:29.832Z,1.07
2022-09-28T00:03:59.797Z,1.40
2022-09-28T00:06:30.138Z,1.20
2022-09-28T00:09:01.363Z,1.30
2022-09-28T00:11:30.023Z,1.20
2022-09-28T00:14:02.453Z,1.30
2022-09-28T00:16:33.279Z,1.10
2022-09-28T00:19:02.371Z,1.30
2022-09-28T00:21:32.747Z,1.40
2022-09-28T00:24:15.195Z,1.23
2022-09-28T00:26:47.599Z,1.17
2022-09-28T00:29:19.684Z,1.10
2022-09-28T00:31:49.049Z,1.20
2022-09-28T00:34:17.925Z,1.50
2022-09-28T00:36:48.088Z,1.07
2022-09-28T00:39:18.343Z,1.40
2022-09-28T00:41:48.058Z,1.33
2022-09-28T00:44:50.102Z,1.10
2022-09-28T00:47:31.227Z,1.10
2022-09-28T00:50:02.694Z,1.50
2022-09-28T00:52:36.268Z,1.30
2022-09-28T00:55:10.624Z,1.23
2022-09-28T00:57:42.189Z,1.40
2022-09-28T01:00:13.418Z,1.53
2022-09-28T01:02:42.500Z,1.50
2022-09-28T01:05:12.409Z,1.67
2022-09-28T01:07:42.192Z,1.70
2022-09-28T01:10:13.129Z,1.27
2022-09-28T01:12:41.721Z,1.20
2022-09-28T01:15:11.973Z,1.20
2022-09-28T01:17:56.131Z,1.00
2022-09-28T01:20:52.512Z,0.97
2022-09-28T01:23:54.947Z,1.10
2022-09-28T01:26:56.299Z,0.90
2022-09-28T01:29:39.102Z,1.10
2022-09-28T01:32:16.132Z,1.20
2022-09-28T01:34:52.231Z,0.90
2022-09-28T01:37:23.319Z,1.10
2022-09-28T01:39:53.730Z,1.20
2022-09-28T01:42:28.366Z,0.97
2022-09-28T01:45:01.922Z,0.90
2022-09-28T01:47:35.176Z,0.90
2022-09-28T01:50:09.505Z,0.80
2022-09-28T01:52:45.505Z,0.87
2022-09-28T01:55:20.125Z,1.00
2022-09-28T01:57:54.671Z,1.03
2022-09-28T02:00:26.250Z,1.10
2022-09-28T02:03:01.053Z,0.83
2022-09-28T02:05:40.600Z,0.77
2022-09-28T02:08:12.774Z,0.97
2022-09-28T02:10:44.619Z,0.83
2022-09-28T02:13:18.170Z,1.03
2022-09-28T02:15:53.083Z,0.90
2022-09-28T02:18:21.856Z,1.00
2022-09-28T02:20:57.796Z,1.10
2022-09-28T02:23:29.459Z,1.00
2022-09-28T02:26:04.537Z,0.90
2022-09-28T02:28:34.966Z,0.97
2022-09-28T02:31:03.770Z,0.90
2022-09-28T02:33:37.178Z,1.10
2022-09-28T02:36:06.769Z,1.10
2022-09-28T02:38:39.800Z,1.20
2022-09-28T02:41:15.003Z,1.33
2022-09-28T02:43:53.939Z,1.50
2022-09-28T02:46:31.354Z,1.33
2022-09-28T02:49:21.727Z,1.20
2022-09-28T02:52:07.292Z,1.30
2022-09-28T02:55:00.966Z,1.60
2022-09-28T02:57:41.247Z,1.13
2022-09-28T03:00:16.117Z,1.20
2022-09-28T03:02:52.208Z,1.60
2022-09-28T03:05:23.837Z,1.40
2022-09-28T03:08:00.370Z,1.30
2022-09-28T03:10:34.692Z,1.30
2022-09-28T03:13:04.643Z,1.37
2022-09-28T03:15:37.215Z,1.30
2022-09-28T03:18:05.914Z,1.40
2022-09-28T03:20:35.190Z,1.37
2022-09-28T03:23:23.808Z,1.33
2022-09-28T03:25:53.156Z,1.60
2022-09-28T03:28:22.163Z,1.50
2022-09-28T03:30:52.406Z,1.53
2022-09-28T03:33:21.289Z,2.00
2022-09-28T03:35:51.576Z,1.70
2022-09-28T03:38:21.383Z,1.87
2022-09-28T03:40:57.066Z,2.70
2022-09-28T03:43:27.156Z,2.20
2022-09-28T03:46:02.050Z,2.47
2022-09-28T03:48:34.673Z,2.10
2022-09-28T03:51:06.903Z,2.10
2022-09-28T03:53:35.850Z,3.00
2022-09-28T03:56:05.514Z,2.37
2022-09-28T03:58:35.381Z,2.50
2022-09-28T04:01:10.762Z,2.80
2022-09-28T04:03:41.931Z,2.70
2022-09-28T04:06:10.925Z,2.80
2022-09-28T04:08:39.533Z,11.30
2022-09-28T04:11:08.201Z,4.43
2022-09-28T04:13:37.350Z,4.17
2022-09-28T04:16:10.892Z,2.70
2022-09-28T04:18:40.697Z,3.43
2022-09-28T04:21:38.792Z,3.50
2022-09-28T04:24:12.920Z,3.30
2022-09-28T04:26:41.601Z,3.10
2022-09-28T04:29:17.166Z,3.80
2022-09-28T04:31:53.067Z,3.20
2022-09-28T04:34:24.412Z,3.40
2022-09-28T04:36:52.989Z,3.60
2022-09-28T04:39:21.876Z,3.80
2022-09-28T04:41:53.754Z,4.47
2022-09-28T04:44:22.337Z,3.60
2022-09-28T04:46:56.359Z,4.07
2022-09-28T04:49:47.506Z,4.50
2022-09-28T04:52:20.708Z,13.63
2022-09-28T04:54:50.959Z,7.10
2022-09-28T04:57:19.863Z,3.63
2022-09-28T04:59:48.415Z,3.60
2022-09-28T05:02:18.336Z,4.33
2022-09-28T05:05:08.155Z,3.20
2022-09-28T05:07:41.877Z,5.20
2022-09-28T05:10:10.616Z,4.07
2022-09-28T05:12:40.796Z,3.33
2022-09-28T05:15:10.021Z,3.97
2022-09-28T05:17:39.924Z,2.80
2022-09-28T05:20:12.210Z,2.70
2022-09-28T05:22:40.827Z,2.70
2022-09-28T05:25:11.139Z,2.50
2022-09-28T05:27:58.113Z,2.87
2022-09-28T05:30:39.071Z,3.60
2022-09-28T05:33:30.085Z,2.97
2022-09-28T05:36:11.828Z,3.77
2022-09-28T05:38:40.501Z,2.77
2022-09-28T05:41:10.976Z,2.40
2022-09-28T05:43:40.900Z,1.80
2022-09-28T05:46:09.483Z,1.63
2022-09-28T05:48:41.996Z,1.27
2022-09-28T05:51:11.117Z,1.40
2022-09-28T05:53:39.818Z,1.80
2022-09-28T05:56:08.451Z,1.77
2022-09-28T05:58:39.310Z,1.77
2022-09-28T06:01:08.186Z,1.90
2022-09-28T06:03:37.074Z,2.10
2022-09-28T06:06:07.847Z,1.53
2022-09-28T06:08:36.461Z,2.03
2022-09-28T06:11:26.958Z,1.70
2022-09-28T06:13:56.347Z,1.80
2022-09-28T06:16:25.693Z,2.10
2022-09-28T06:18:54.374Z,2.30
2022-09-28T06:21:51.328Z,2.40
2022-09-28T06:24:19.908Z,2.53
2022-09-28T06:26:48.489Z,2.63
2022-09-28T06:29:19.781Z,3.07
2022-09-28T06:31:49.116Z,2.70
2022-09-28T06:34:19.231Z,2.73
2022-09-28T06:36:48.784Z,3.13
2022-09-28T06:39:19.377Z,3.03
2022-09-28T06:41:47.993Z,3.40
2022-09-28T06:44:19.177Z,2.67
2022-09-28T06:47:06.630Z,2.20
2022-09-28T06:49:55.299Z,2.23
2022-09-28T06:52:29.466Z,1.90
2022-09-28T06:55:29.107Z,1.80
2022-09-28T06:58:00.123Z,2.20
2022-09-28T07:00:29.174Z,2.10
2022-09-28T07:02:58.150Z,1.83
2022-09-28T07:05:49.582Z,1.43
2022-09-28T07:08:36.027Z,1.73
2022-09-28T07:11:34.319Z,1.80
2022-09-28T07:14:25.592Z,1.97
2022-09-28T07:17:13.033Z,1.97
2022-09-28T07:19:43.278Z,2.00
2022-09-28T07:22:18.565Z,2.30
2022-09-28T07:24:49.185Z,2.10
2022-09-28T07:27:48.208Z,2.30
2022-09-28T07:30:20.893Z,2.13
2022-09-28T07:33:18.861Z,2.30
2022-09-28T07:35:53.245Z,2.40
2022-09-28T07:38:23.847Z,2.80
2022-09-28T07:41:09.877Z,2.40
2022-09-28T07:43:42.310Z,2.30
2022-09-28T07:46:12.970Z,2.60
2022-09-28T07:48:46.822Z,2.50
2022-09-28T07:51:26.361Z,2.80
2022-09-28T07:54:14.911Z,2.93
2022-09-28T07:57:02.081Z,3.03
2022-09-28T08:00:02.257Z,3.07
2022-09-28T08:02:42.889Z,2.80
2022-09-28T08:05:12.641Z,2.90
2022-09-28T08:07:41.236Z,3.80
2022-09-28T08:10:11.416Z,2.90
2022-09-28T08:12:49.063Z,2.80
2022-09-28T08:15:54.716Z,2.30
2022-09-28T08:18:34.749Z,1.40
2022-09-28T08:21:21.601Z,1.80
2022-09-28T08:23:50.897Z,2.07
2022-09-28T08:26:19.882Z,1.80
2022-09-28T08:28:48.958Z,1.97
2022-09-28T08:31:42.014Z,2.27
2022-09-28T08:34:17.290Z,1.87
2022-09-28T08:37:05.328Z,2.20
2022-09-28T08:39:52.574Z,2.00
2022-09-28T08:42:40.798Z,2.23
2022-09-28T08:45:29.843Z,3.13
2022-09-28T08:48:52.378Z,2.20
2022-09-28T08:51:51.170Z,2.20
2022-09-28T08:54:45.986Z,2.40
2022-09-28T08:57:30.952Z,2.70
2022-09-28T09:00:01.341Z,3.13
2022-09-28T09:02:36.244Z,2.40
2022-09-28T09:05:31.159Z,2.90
2022-09-28T09:08:23.241Z,2.60
2022-09-28T09:10:54.074Z,1.90
2022-09-28T09:13:47.730Z,1.80
2022-09-28T09:16:33.256Z,1.70
2022-09-28T09:19:17.397Z,1.70
2022-09-28T09:22:16.676Z,1.70
2022-09-28T09:24:51.225Z,1.80
2022-09-28T09:27:42.158Z,1.60
2022-09-28T09:30:15.988Z,1.60
2022-09-28T09:33:06.963Z,1.50
2022-09-28T09:35:59.811Z,1.30
2022-09-28T09:39:14.455Z,1.43
2022-09-28T09:42:16.301Z,1.27
2022-09-28T09:45:36.613Z,1.07
2022-09-28T09:48:30.719Z,1.30
2022-09-28T09:51:04.193Z,1.50
2022-09-28T09:53:38.818Z,1.13
2022-09-28T09:56:16.318Z,1.27
2022-09-28T09:59:16.022Z,1.20
2022-09-28T10:02:03.623Z,1.30
2022-09-28T10:04:47.229Z,1.40
2022-09-28T10:07:26.093Z,1.33
2022-09-28T10:09:59.335Z,1.80
2022-09-28T10:12:40.064Z,1.03
2022-09-28T10:15:09.895Z,1.40
2022-09-28T10:17:50.019Z,0.90
2022-09-28T10:20:40.260Z,1.27
2022-09-28T10:23:24.106Z,0.80
2022-09-28T10:25:55.244Z,0.80
2022-09-28T10:28:36.615Z,0.90
2022-09-28T10:31:36.102Z,0.80
2022-09-28T10:34:07.577Z,1.00
2022-09-28T10:36:51.716Z,1.53
2022-09-28T10:39:28.789Z,1.10
2022-09-28T10:41:59.906Z,1.17
2022-09-28T10:44:34.702Z,1.23
2022-09-28T10:47:16.925Z,0.90
2022-09-28T10:49:49.059Z,0.80
2022-09-28T10:52:47.942Z,1.10
2022-09-28T10:55:42.336Z,0.80
2022-09-28T10:58:27.991Z,0.87
2022-09-28T11:01:04.537Z,0.87
2022-09-28T11:03:33.928Z,0.73
2022-09-28T11:06:09.032Z,0.87
2022-09-28T11:08:44.542Z,0.90
2022-09-28T11:11:20.557Z,0.80
2022-09-28T11:14:00.399Z,0.97
2022-09-28T11:16:36.178Z,0.82
2022-09-28T11:19:25.371Z,0.80
2022-09-28T11:21:53.967Z,0.70
2022-09-28T11:24:27.517Z,0.97
2022-09-28T11:27:00.327Z,0.90
2022-09-28T11:29:38.119Z,1.13
2022-09-28T11:32:24.296Z,1.60
2022-09-28T11:35:19.639Z,1.60
2022-09-28T11:38:18.527Z,1.50
2022-09-28T11:41:26.156Z,1.30
2022-09-28T11:44:31.052Z,1.50
2022-09-28T11:47:30.348Z,1.30
2022-09-28T11:50:04.779Z,0.90
2022-09-28T11:52:42.276Z,1.40
2022-09-28T11:55:19.037Z,1.00
2022-09-28T11:57:53.181Z,1.20
2022-09-28T12:00:23.464Z,0.80
2022-09-28T12:03:06.110Z,0.82
2022-09-28T12:05:40.378Z,0.98
2022-09-28T12:08:15.498Z,1.00
2022-09-28T12:11:09.818Z,0.80
2022-09-28T12:14:01.313Z,0.80
2022-09-28T12:17:04.139Z,0.90
2022-09-28T12:19:32.017Z,1.00
2022-09-28T12:22:05.867Z,0.98
2022-09-28T12:24:38.619Z,1.00
2022-09-28T12:27:22.563Z,0.95
2022-09-28T12:29:58.292Z,0.82
2022-09-28T12:32:32.574Z,0.77
2022-09-28T12:35:03.496Z,0.90
2022-09-28T12:37:46.550Z,1.10
2022-09-28T12:40:42.484Z,0.80
2022-09-28T12:43:37.429Z,0.98
2022-09-28T12:46:25.074Z,1.05
2022-09-28T12:50:27.179Z,0.70
2022-09-28T12:52:37.362Z,0.65
2022-09-28T12:55:20.494Z,1.10
2022-09-28T12:57:59.653Z,0.80
2022-09-28T13:00:36.920Z,1.05
2022-09-28T13:03:45.747Z,0.65
2022-09-28T13:06:37.162Z,1.00
2022-09-28T13:09:20.011Z,1.10
2022-09-28T13:12:13.115Z,1.08
2022-09-28T13:15:24.739Z,0.98
2022-09-28T13:18:02.951Z,1.23
2022-09-28T13:20:40.804Z,1.00
2022-09-28T13:23:17.837Z,1.02
2022-09-28T13:25:53.156Z,1.20
2022-09-28T13:28:26.982Z,0.80
2022-09-28T13:33:37.012Z,0.85
2022-09-28T13:36:29.509Z,0.80
2022-09-28T13:39:00.010Z,0.95
2022-09-28T13:41:33.318Z,0.80
2022-09-28T13:44:25.168Z,1.17
2022-09-28T13:47:20.736Z,1.40
2022-09-28T13:50:03.872Z,0.98
2022-09-28T13:52:44.513Z,0.80
2022-09-28T13:55:24.811Z,0.95
2022-09-28T13:57:57.865Z,1.48
2022-09-28T14:00:30.672Z,1.20
2022-09-28T14:03:13.270Z,1.52
2022-09-28T14:06:11.031Z,1.30
2022-09-28T14:08:44.841Z,1.20
2022-09-28T14:11:42.513Z,1.27
2022-09-28T14:14:56.723Z,1.00
2022-09-28T14:18:02.176Z,1.17
2022-09-28T14:20:32.414Z,0.90
2022-09-28T14:23:21.133Z,1.08
2022-09-28T14:26:07.957Z,0.77
2022-09-28T14:28:53.819Z,1.02
2022-09-28T14:31:28.057Z,1.05
2022-09-28T14:33:58.981Z,0.85
2022-09-28T14:36:48.298Z,0.90
2022-09-28T14:39:47.178Z,0.90
2022-09-28T14:42:19.323Z,0.90
2022-09-28T14:45:26.020Z,0.93
2022-09-28T14:48:18.996Z,1.00
2022-09-28T14:50:49.940Z,2.75
2022-09-28T14:53:24.782Z,4.00
2022-09-28T14:55:58.742Z,2.67
2022-09-28T14:58:29.852Z,4.10
2022-09-28T15:01:05.086Z,1.65
2022-09-28T15:03:36.429Z,1.20
2022-09-28T15:06:05.293Z,1.40
2022-09-28T15:08:38.797Z,2.30
2022-09-28T15:11:12.973Z,2.05
2022-09-28T15:13:42.876Z,1.27
2022-09-28T15:16:14.367Z,1.20
2022-09-28T15:19:11.477Z,1.45
2022-09-28T15:21:42.328Z,1.10
2022-09-28T15:24:28.808Z,0.98
2022-09-28T15:26:57.839Z,1.30
2022-09-28T15:29:31.084Z,1.42
2022-09-28T15:32:00.169Z,1.63
2022-09-28T15:34:49.962Z,4.10
2022-09-28T15:37:22.501Z,1.30
2022-09-28T15:39:54.769Z,1.75
2022-09-28T15:42:23.878Z,2.05
2022-09-28T15:45:06.204Z,2.00
2022-09-28T15:47:38.734Z,1.70
2022-09-28T15:50:21.193Z,1.70
2022-09-28T15:52:55.960Z,1.80
2022-09-28T15:55:27.351Z,1.10
2022-09-28T15:58:17.134Z,1.23
2022-09-28T16:00:47.388Z,1.77
2022-09-28T16:03:24.970Z,1.50
2022-09-28T16:06:07.420Z,1.40
2022-09-28T16:08:40.843Z,1.60
2022-09-28T16:11:14.318Z,1.30
2022-09-28T16:13:56.463Z,1.00
2022-09-28T16:16:30.353Z,1.40
2022-09-28T16:19:01.596Z,2.22
2022-09-28T16:21:49.118Z,1.85
2022-09-28T16:24:23.872Z,3.20
2022-09-28T16:26:58.501Z,4.03
2022-09-28T16:29:35.767Z,3.92
2022-09-28T16:32:41.741Z,3.10
2022-09-28T16:35:21.113Z,2.95
2022-09-28T16:38:00.408Z,7.10
2022-09-28T16:40:29.558Z,4.95
2022-09-28T16:43:03.096Z,3.08
2022-09-28T16:45:32.902Z,2.85
2022-09-28T16:48:03.023Z,2.50
2022-09-28T16:50:31.656Z,1.98
2022-09-28T16:53:27.126Z,7.32
2022-09-28T16:55:55.871Z,3.13
2022-09-28T16:58:25.166Z,3.20
2022-09-28T17:00:54.608Z,3.42
2022-09-28T17:03:24.472Z,1.90
2022-09-28T17:05:53.579Z,2.73
2022-09-28T17:08:25.101Z,1.98
2022-09-28T17:11:13.924Z,2.50
2022-09-28T17:13:45.882Z,1.83
2022-09-28T17:16:17.759Z,2.37
2022-09-28T17:18:48.234Z,3.22
2022-09-28T17:21:18.632Z,2.43
2022-09-28T17:23:50.594Z,3.47
2022-09-28T17:26:26.238Z,3.33
2022-09-28T17:28:55.181Z,3.50
2022-09-28T17:31:23.817Z,3.93
2022-09-28T17:33:54.458Z,4.17
2022-09-28T17:36:24.243Z,3.20
2022-09-28T17:38:54.331Z,4.20
2022-09-28T17:41:22.936Z,2.97
2022-09-28T17:43:51.559Z,3.90
2022-09-28T17:46:28.130Z,3.30
2022-09-28T17:48:59.574Z,3.20
2022-09-28T17:51:30.288Z,4.20
2022-09-28T17:54:01.090Z,3.40
2022-09-28T17:56:32.460Z,4.83
2022-09-28T17:59:03.731Z,4.07
2022-09-28T18:01:34.976Z,4.63
2022-09-28T18:04:05.373Z,5.07
2022-09-28T18:06:34.626Z,3.80
2022-09-28T18:09:05.504Z,2.77
2022-09-28T18:11:35.377Z,3.43
2022-09-28T18:14:06.794Z,4.07
2022-09-28T18:16:39.157Z,3.37
2022-09-28T18:19:07.822Z,6.53
2022-09-28T18:21:36.482Z,5.60
2022-09-28T18:24:06.758Z,4.83
2022-09-28T18:26:35.398Z,4.93
2022-09-28T18:29:04.035Z,3.80
2022-09-28T18:31:32.729Z,2.63
2022-09-28T18:34:01.970Z,4.03
2022-09-28T18:36:30.901Z,3.27
2022-09-28T18:39:01.467Z,2.97
2022-09-28T18:41:31.547Z,2.90
2022-09-28T18:44:01.478Z,3.20
2022-09-28T18:46:35.973Z,2.20
2022-09-28T18:49:05.452Z,2.20
2022-09-28T18:51:34.052Z,2.30
2022-09-28T18:54:07.172Z,2.50
2022-09-28T18:56:38.055Z,2.90
2022-09-28T18:59:11.958Z,3.70
2022-09-28T19:01:41.993Z,4.00
2022-09-28T19:04:13.524Z,4.03
2022-09-28T19:06:44.625Z,3.47
2022-09-28T19:09:13.475Z,5.53
2022-09-28T19:11:43.474Z,7.33
2022-09-28T19:14:15.018Z,8.20
2022-09-28T19:16:44.709Z,8.50
2022-09-28T19:19:15.605Z,8.00
2022-09-28T19:21:44.328Z,8.80
2022-09-28T19:24:15.460Z,10.07
2022-09-28T19:26:46.330Z,11.07
2022-09-28T19:29:15.681Z,10.17
2022-09-28T19:31:44.460Z,8.03
2022-09-28T19:34:14.227Z,7.60
2022-09-28T19:36:43.417Z,7.17
2022-09-28T19:39:15.434Z,5.23
2022-09-28T19:41:51.343Z,5.93
2022-09-28T19:44:25.637Z,5.10
2022-09-28T19:46:56.157Z,6.50
2022-09-28T19:49:27.293Z,7.37
2022-09-28T19:52:14.682Z,6.47
2022-09-28T19:54:45.190Z,4.50
2022-09-28T19:57:15.932Z,4.10
2022-09-28T19:59:48.411Z,3.70
2022-09-28T20:02:19.636Z,3.83
2022-09-28T20:04:48.676Z,3.40
2022-09-28T20:07:17.274Z,4.43
2022-09-28T20:09:45.973Z,4.70
2022-09-28T20:12:15.953Z,4.73
2022-09-28T20:14:44.588Z,4.67
2022-09-28T20:17:13.212Z,5.47
2022-09-28T20:19:41.773Z,5.50
2022-09-28T20:22:11.002Z,4.83
2022-09-28T20:24:39.617Z,4.80
2022-09-28T20:27:08.657Z,3.70
2022-09-28T20:29:38.617Z,4.37
2022-09-28T20:32:07.618Z,3.53
2022-09-28T20:34:36.143Z,3.00
2022-09-28T20:37:04.755Z,2.90
2022-09-28T20:39:33.331Z,2.80
2022-09-28T20:42:02.908Z,3.07
2022-09-28T20:44:31.638Z,2.90
2022-09-28T20:47:03.579Z,2.67
2022-09-28T20:49:32.268Z,2.70
2022-09-28T20:52:00.867Z,2.63
2022-09-28T20:54:29.585Z,3.47
2022-09-28T20:56:58.134Z,3.20
2022-09-28T20:59:27.666Z,3.07
2022-09-28T21:01:56.339Z,2.80
2022-09-28T21:04:27.407Z,3.20
2022-09-28T21:06:56.044Z,2.57
2022-09-28T21:09:24.785Z,2.83
2022-09-28T21:11:53.414Z,5.93
2022-09-28T21:14:22.689Z,8.57
2022-09-28T21:16:51.333Z,5.53
2022-09-28T21:19:22.381Z,4.03
2022-09-28T21:21:53.209Z,3.17
2022-09-28T21:24:21.992Z,3.10
2022-09-28T21:26:50.633Z,3.00
2022-09-28T21:29:19.268Z,2.70
2022-09-28T21:31:48.520Z,2.87
2022-09-28T21:34:19.661Z,3.27
2022-09-28T21:36:51.197Z,3.60
2022-09-28T21:39:21.580Z,3.87
2022-09-28T21:41:50.256Z,2.73
2022-09-28T21:44:19.674Z,3.27
2022-09-28T21:46:48.525Z,3.00
2022-09-28T21:49:17.152Z,2.97
2022-09-28T21:51:47.322Z,3.10
2022-09-28T21:54:16.116Z,2.87
2022-09-28T21:56:46.088Z,2.67
2022-09-28T21:59:14.702Z,3.07
2022-09-28T22:01:44.251Z,3.40
2022-09-28T22:04:13.026Z,3.20
2022-09-28T22:06:41.640Z,3.53
2022-09-28T22:09:10.320Z,3.17
2022-09-28T22:11:38.893Z,3.30
2022-09-28T22:14:10.832Z,3.00
2022-09-28T22:16:39.605Z,3.00
2022-09-28T22:19:08.264Z,3.00
2022-09-28T22:21:37.035Z,2.73
2022-09-28T22:24:07.879Z,3.27
2022-09-28T22:26:37.573Z,2.97
2022-09-28T22:29:09.593Z,3.13
2022-09-28T22:31:40.302Z,2.60
2022-09-28T22:34:09.707Z,3.20
2022-09-28T22:36:38.275Z,3.23
2022-09-28T22:39:07.493Z,3.03
2022-09-28T22:41:36.140Z,2.80
2022-09-28T22:44:04.738Z,3.33
2022-09-28T22:46:34.918Z,3.30
2022-09-28T22:49:03.714Z,3.20
2022-09-28T22:51:32.508Z,3.00
2022-09-28T22:54:01.345Z,3.73
2022-09-28T22:56:30.459Z,3.90
2022-09-28T22:58:59.124Z,3.33
2022-09-28T23:01:29.514Z,3.27
2022-09-28T23:04:00.803Z,3.53
2022-09-28T23:06:30.785Z,3.67
2022-09-28T23:08:59.531Z,3.67
2022-09-28T23:11:29.005Z,3.53
2022-09-28T23:13:59.204Z,3.57
2022-09-28T23:16:28.307Z,3.30
2022-09-28T23:18:57.370Z,3.37
2022-09-28T23:21:28.376Z,3.63
2022-09-28T23:23:59.548Z,3.40
2022-09-28T23:26:30.638Z,3.30
2022-09-28T23:29:00.166Z,3.60
2022-09-28T23:31:30.886Z,3.13
2022-09-28T23:33:59.884Z,3.63
2022-09-28T23:36:29.886Z,3.80
2022-09-28T23:38:59.556Z,2.93
2022-09-28T23:41:28.221Z,3.23
2022-09-28T23:43:56.988Z,3.37
2022-09-28T23:46:25.697Z,3.57
2022-09-28T23:48:54.525Z,3.23
2022-09-28T23:51:23.188Z,3.70
2022-09-28T23:53:53.130Z,3.40
2022-09-28T23:56:21.842Z,3.70
2022-09-28T23:58:50.444Z,3.33
